Terminal Aerodrome Forecast
Issued by NWS Cleveland, OH

Home | Current Version | Previous Version | Graphics & Text | Print | Product List | Glossary On
Versions: 1 2 3 4 5 6 7 8 9 10 11 12 13 14 15 16 17 18 19 20
000
FTUS41 KCLE 162100 AAB
TAFERI
TAF AMD
KERI 162145Z 1622/1718 25012KT 6SM -RA BR SCT006 BKN015 OVC025
     FM170500 23012G22KT 6SM BR OVC008
     FM171300 25015G25KT 6SM -SN OVC012=

USA.gov is the U.S. government's official web portal to all federal, state and local government web resources and services.